Time;durP1;ratioP1;P1;durP2;ratioP2;P2;SDS_P1;SDS_P2;PMS_P1;PMS_P2;Temp;Humidity;BMP_temperature;BMP_pressure;BME280_temperature;BME280_humidity;BME280_pressure;Samples;Min_cycle;Max_cycle;Signal;HPM_P1;HPM_P2
2024/01/28 00:01:03;;;;;;;0.00;0.00;;;;;;;5.60;100.00;101401.44;4886020;29;20033;-78
2024/01/28 00:03:29;;;;;;;0.00;0.00;;;;;;;5.66;100.00;101410.63;4893055;29;20637;-78
2024/01/28 00:05:55;;;;;;;0.00;0.00;;;;;;;5.70;100.00;101390.19;4891204;29;20033;-76
2024/01/28 00:08:20;;;;;;;0.00;0.00;;;;;;;5.68;100.00;101398.53;4882271;29;20039;-78
2024/01/28 00:10:46;;;;;;;0.00;0.00;;;;;;;5.66;100.00;101389.75;4875176;29;20116;-77
2024/01/28 00:13:12;;;;;;;0.00;0.00;;;;;;;5.73;100.00;101390.59;4898854;29;20043;-77
2024/01/28 00:15:37;;;;;;;0.00;0.00;;;;;;;5.68;100.00;101376.81;4899798;29;20033;-77
2024/01/28 00:18:03;;;;;;;0.00;0.00;;;;;;;5.73;100.00;101371.59;4867183;29;20080;-76
2024/01/28 00:20:28;;;;;;;0.00;0.00;;;;;;;5.69;100.00;101355.94;4892040;29;20103;-76
2024/01/28 00:22:54;;;;;;;0.00;0.00;;;;;;;5.66;100.00;101345.50;4879955;29;20487;-77
2024/01/28 00:25:20;;;;;;;0.00;0.00;;;;;;;5.62;100.00;101345.06;4880717;29;20036;-76
2024/01/28 00:27:45;;;;;;;0.00;0.00;;;;;;;5.57;100.00;101339.47;4878266;29;20039;-79
2024/01/28 00:30:12;;;;;;;0.00;0.00;;;;;;;5.68;100.00;101352.41;4873834;29;20036;-78
2024/01/28 00:32:40;;;;;;;0.00;0.00;;;;;;;5.58;100.00;101349.28;4902309;29;20043;-77
2024/01/28 00:35:06;;;;;;;0.00;0.00;;;;;;;5.59;100.00;101359.06;4882074;29;20680;-78
2024/01/28 00:37:31;;;;;;;0.00;0.00;;;;;;;5.52;100.00;101350.09;4888613;29;20029;-78
2024/01/28 00:39:57;;;;;;;0.00;0.00;;;;;;;5.49;100.00;101356.81;4886731;29;20040;-78
2024/01/28 00:42:23;;;;;;;0.00;0.00;;;;;;;5.36;100.00;101335.94;4859490;29;20036;-76
2024/01/28 00:44:49;;;;;;;0.00;0.00;;;;;;;5.40;100.00;101336.34;4886235;29;20463;-78
2024/01/28 00:47:15;;;;;;;0.00;0.00;;;;;;;5.45;99.19;101333.00;4882128;29;20114;-78
2024/01/28 00:49:40;;;;;;;0.00;0.00;;;;;;;5.24;98.87;101297.75;4892135;29;20036;-77
2024/01/28 00:52:08;;;;;;;0.00;0.00;;;;;;;5.47;99.03;101330.91;4912504;29;20036;-75
2024/01/28 00:54:34;;;;;;;0.00;0.00;;;;;;;5.32;97.97;101291.28;4875233;29;20039;-76
2024/01/28 00:57:00;;;;;;;0.00;0.00;;;;;;;5.31;98.07;101284.19;4886371;29;20386;-76
2024/01/28 00:59:25;;;;;;;0.00;0.00;;;;;;;5.20;97.70;101255.00;4897917;29;20131;-75
2024/01/28 01:01:52;;;;;;;0.00;0.00;;;;;;;5.27;97.11;101266.69;4897656;29;20032;-78
2024/01/28 01:04:17;;;;;;;0.00;0.00;;;;;;;5.40;97.62;101293.78;4901540;29;20020;-79
2024/01/28 01:06:44;;;;;;;0.00;0.00;;;;;;;5.35;97.98;101287.31;4910415;29;20097;-74
2024/01/28 01:09:09;;;;;;;0.00;0.00;;;;;;;5.38;97.61;101301.28;4897377;29;20032;-75
2024/01/28 01:11:35;;;;;;;0.00;0.00;;;;;;;5.37;97.66;101296.94;4898747;29;20479;-75
2024/01/28 01:14:01;;;;;;;0.00;0.00;;;;;;;5.22;97.64;101271.88;4878871;29;20052;-75
2024/01/28 01:16:27;;;;;;;0.00;0.00;;;;;;;4.99;97.45;101247.91;4898264;29;20037;-75
2024/01/28 01:18:56;;;;;;;0.00;0.00;;;;;;;5.06;97.35;101259.59;4895396;29;20051;-75
2024/01/28 01:21:21;;;;;;;0.00;0.00;;;;;;;5.20;98.33;101292.97;4899452;29;20037;-75
2024/01/28 01:23:47;;;;;;;0.00;0.00;;;;;;;5.22;98.08;101296.28;4895356;29;20066;-76
2024/01/28 01:26:13;;;;;;;0.00;0.00;;;;;;;5.19;98.50;101283.97;4901784;29;20029;-75
2024/01/28 01:28:38;;;;;;;0.00;0.00;;;;;;;5.25;99.89;101296.69;4885934;29;20851;-77
2024/01/28 01:31:04;;;;;;;0.00;0.00;;;;;;;5.14;100.00;101272.09;4886162;29;20032;-74
2024/01/28 01:33:30;;;;;;;0.00;0.00;;;;;;;5.14;100.00;101251.25;4900153;29;20020;-76
2024/01/28 01:35:55;;;;;;;0.00;0.00;;;;;;;5.23;100.00;101276.28;4878016;29;20504;-75
2024/01/28 01:38:22;;;;;;;0.00;0.00;;;;;;;5.02;100.00;101233.94;4891370;29;20025;-74
2024/01/28 01:40:47;;;;;;;0.00;0.00;;;;;;;5.17;100.00;101266.25;4901896;29;20036;-74
2024/01/28 01:43:15;;;;;;;0.00;0.00;;;;;;;5.10;100.00;101243.75;4888094;29;20028;-74
2024/01/28 01:45:43;;;;;;;0.00;0.00;;;;;;;4.86;100.00;101213.50;4917587;29;20028;-75
2024/01/28 01:48:12;;;;;;;0.00;0.00;;;;;;;5.01;100.00;101252.09;4891246;29;21546;-74
2024/01/28 01:50:40;;;;;;;0.00;0.00;;;;;;;5.02;100.00;101267.31;4893108;29;20419;-74
2024/01/28 01:53:06;;;;;;;0.00;0.00;;;;;;;4.95;100.00;101252.06;4885611;29;20101;-74
2024/01/28 01:55:36;;;;;;;0.00;0.00;;;;;;;4.80;100.00;101239.56;4891378;29;20103;-75
2024/01/28 01:58:03;;;;;;;0.00;0.00;;;;;;;4.82;100.00;101242.06;4899782;29;20174;-74
2024/01/28 02:00:30;;;;;;;0.00;0.00;;;;;;;4.87;100.00;101253.13;4898975;29;20032;-74
2024/01/28 02:02:55;;;;;;;0.00;0.00;;;;;;;4.81;100.00;101268.34;4900109;29;20041;-74
2024/01/28 02:05:21;;;;;;;0.10;0.10;;;;;;;4.79;100.00;101250.59;4910597;29;20083;-76
2024/01/28 02:07:47;;;;;;;0.10;0.10;;;;;;;4.76;100.00;101253.72;4890340;29;20140;-76
2024/01/28 02:10:12;;;;;;;0.00;0.00;;;;;;;4.60;100.00;101234.16;4894615;29;20104;-75
2024/01/28 02:12:38;;;;;;;0.00;0.00;;;;;;;4.64;100.00;101251.63;4899302;29;20444;-76
2024/01/28 02:15:09;;;;;;;0.00;0.00;;;;;;;4.41;100.00;101218.69;4900894;29;20028;-75
2024/01/28 02:17:37;;;;;;;0.00;0.00;;;;;;;4.48;100.00;101227.66;4914485;29;20053;-77
2024/01/28 02:20:03;;;;;;;0.00;0.00;;;;;;;4.38;100.00;101209.13;4917812;29;20039;-75
2024/01/28 02:22:29;;;;;;;0.00;0.00;;;;;;;4.44;100.00;101212.84;4896622;29;20038;-75
2024/01/28 02:24:57;;;;;;;0.00;0.00;;;;;;;4.45;100.00;101219.94;4884152;29;20083;-76
2024/01/28 02:27:23;;;;;;;0.00;0.00;;;;;;;4.30;100.00;101196.56;4899590;29;20036;-75
2024/01/28 02:29:48;;;;;;;0.00;0.00;;;;;;;4.43;100.00;101217.44;4896768;29;20025;-75
2024/01/28 02:32:16;;;;;;;0.00;0.00;;;;;;;4.46;100.00;101210.78;4883859;29;20559;-76
2024/01/28 02:34:41;;;;;;;0.00;0.00;;;;;;;4.31;100.00;101195.53;4906636;29;20024;-74
2024/01/28 02:37:07;;;;;;;0.00;0.00;;;;;;;4.35;100.00;101199.53;4916442;29;20454;-76
2024/01/28 02:39:33;;;;;;;0.00;0.00;;;;;;;4.33;100.00;101201.56;4879373;29;20036;-78
2024/01/28 02:41:58;;;;;;;0.00;0.00;;;;;;;4.32;100.00;101202.63;4879720;29;20396;-77
2024/01/28 02:44:24;;;;;;;0.00;0.00;;;;;;;4.30;100.00;101198.47;4881900;29;20104;-77
2024/01/28 02:46:49;;;;;;;0.00;0.00;;;;;;;4.29;100.00;101208.47;4898718;29;20012;-78
2024/01/28 02:49:15;;;;;;;0.00;0.00;;;;;;;4.18;100.00;101187.41;4877002;29;20044;-76
2024/01/28 02:51:44;;;;;;;0.00;0.00;;;;;;;4.04;100.00;101170.28;4894885;29;20020;-75
2024/01/28 02:54:14;;;;;;;0.00;0.00;;;;;;;3.94;100.00;101164.44;4913180;29;20484;-76
2024/01/28 02:56:39;;;;;;;0.10;0.10;;;;;;;3.94;100.00;101164.44;4892676;29;21144;-77
2024/01/28 02:59:05;;;;;;;0.10;0.10;;;;;;;4.17;100.00;101191.13;4878290;29;20681;-76
2024/01/28 03:01:30;;;;;;;0.00;0.00;;;;;;;3.99;100.00;101154.66;4897104;29;20413;-75
2024/01/28 03:03:56;;;;;;;0.00;0.00;;;;;;;4.05;100.00;101161.13;4896679;29;20040;-75
2024/01/28 03:06:21;;;;;;;0.00;0.00;;;;;;;4.19;100.00;101183.63;4883402;29;20041;-75
2024/01/28 03:08:47;;;;;;;0.00;0.00;;;;;;;4.24;100.00;101180.34;4895873;29;20028;-75
2024/01/28 03:11:12;;;;;;;0.00;0.00;;;;;;;4.17;100.00;101143.22;4883100;29;20172;-74
2024/01/28 03:13:37;;;;;;;0.00;0.00;;;;;;;4.32;100.00;101163.88;4896875;29;20036;-75
2024/01/28 03:16:11;;;;;;;0.00;0.00;;;;;;;4.37;100.00;101159.50;4898892;29;20119;-74
2024/01/28 03:18:36;;;;;;;0.00;0.00;;;;;;;4.45;100.00;101165.78;4895082;29;20063;-75
2024/01/28 03:21:04;;;;;;;0.00;0.00;;;;;;;4.46;100.00;101156.63;4882457;29;20383;-76
2024/01/28 03:23:30;;;;;;;0.00;0.00;;;;;;;4.24;100.00;101118.88;4870671;29;20033;-76
2024/01/28 03:25:55;;;;;;;0.00;0.00;;;;;;;4.49;100.00;101145.38;4882461;29;20475;-76
2024/01/28 03:28:21;;;;;;;0.00;0.00;;;;;;;4.48;100.00;101143.69;4894779;29;20502;-75
2024/01/28 03:30:46;;;;;;;0.10;0.10;;;;;;;4.47;100.00;101145.56;4899902;29;20415;-76
2024/01/28 03:33:12;;;;;;;0.00;0.00;;;;;;;4.47;100.00;101142.88;4874455;29;20096;-76
2024/01/28 03:35:38;;;;;;;0.00;0.00;;;;;;;4.29;100.00;101129.09;4892605;29;20033;-75
2024/01/28 03:38:05;;;;;;;0.00;0.00;;;;;;;4.24;100.00;101139.72;4892782;29;20032;-76
2024/01/28 03:40:31;;;;;;;0.00;0.00;;;;;;;4.19;100.00;101132.19;4904518;29;20013;-75
2024/01/28 03:43:03;;;;;;;0.00;0.00;;;;;;;4.07;100.00;101126.56;4903397;29;20024;-75
2024/01/28 03:45:31;;;;;;;0.00;0.00;;;;;;;3.91;100.00;101113.41;4891276;29;20025;-75
2024/01/28 03:47:57;;;;;;;0.00;0.00;;;;;;;4.00;100.00;101121.16;4895430;29;20135;-76
2024/01/28 03:50:30;;;;;;;0.00;0.00;;;;;;;3.87;100.00;101107.59;4894912;29;20127;-77
2024/01/28 03:52:56;;;;;;;0.00;0.00;;;;;;;4.01;100.00;101133.63;4893250;29;20048;-76
2024/01/28 03:55:21;;;;;;;0.00;0.00;;;;;;;3.82;100.00;101094.66;4892573;29;20033;-76
2024/01/28 03:57:47;;;;;;;0.10;0.10;;;;;;;3.87;100.00;101099.47;4899968;29;20024;-76
2024/01/28 04:00:13;;;;;;;0.00;0.00;;;;;;;3.85;100.00;101085.31;4876112;29;20044;-76
2024/01/28 04:02:39;;;;;;;0.00;0.00;;;;;;;3.83;100.00;101076.56;4899001;29;20013;-76
2024/01/28 04:05:05;;;;;;;0.00;0.00;;;;;;;4.05;100.00;101108.88;4911258;29;20420;-74
2024/01/28 04:07:31;;;;;;;0.00;0.00;;;;;;;3.93;100.00;101093.25;4880819;29;20051;-75
2024/01/28 04:09:58;;;;;;;0.00;0.00;;;;;;;3.84;100.00;101076.38;4883634;29;20009;-74
2024/01/28 04:12:24;;;;;;;0.00;0.00;;;;;;;3.90;100.00;101088.25;4887957;29;20021;-74
2024/01/28 04:14:49;;;;;;;0.00;0.00;;;;;;;3.89;100.00;101080.34;4896845;29;20028;-74
2024/01/28 04:17:16;;;;;;;0.00;0.00;;;;;;;4.01;100.00;101089.50;4891393;29;20379;-76
2024/01/28 04:19:41;;;;;;;0.00;0.00;;;;;;;3.89;100.00;101070.34;4903179;29;20047;-75
2024/01/28 04:22:09;;;;;;;0.00;0.00;;;;;;;3.83;100.00;101087.41;4892987;29;20032;-77
2024/01/28 04:24:36;;;;;;;0.00;0.00;;;;;;;3.86;100.00;101094.28;4894318;29;20052;-76
2024/01/28 04:27:02;;;;;;;0.00;0.00;;;;;;;3.78;100.00;101098.84;4871992;29;20040;-75
2024/01/28 04:29:28;;;;;;;0.00;0.00;;;;;;;3.75;100.00;101101.97;4875575;29;20029;-76
2024/01/28 04:31:56;;;;;;;0.00;0.00;;;;;;;3.71;100.00;101083.59;4893695;29;20037;-75
2024/01/28 04:34:22;;;;;;;0.00;0.00;;;;;;;3.70;100.00;101076.56;4892077;29;20459;-76
2024/01/28 04:36:47;;;;;;;0.10;0.10;;;;;;;3.67;100.00;101067.78;4910693;29;20028;-76
2024/01/28 04:39:13;;;;;;;0.00;0.00;;;;;;;3.92;100.00;101080.75;4880697;29;20095;-76
2024/01/28 04:41:39;;;;;;;0.00;0.00;;;;;;;3.93;100.00;101077.00;4898537;29;20025;-75
2024/01/28 04:44:07;;;;;;;0.00;0.00;;;;;;;3.83;100.00;101057.63;4912656;29;20035;-75
2024/01/28 04:46:33;;;;;;;0.10;0.10;;;;;;;3.93;100.00;101086.97;4893031;29;20028;-75
2024/01/28 04:49:00;;;;;;;0.00;0.00;;;;;;;3.69;100.00;101034.31;4868018;29;20170;-77
2024/01/28 04:51:31;;;;;;;0.00;0.00;;;;;;;3.75;100.00;101052.41;4903747;29;20080;-76
2024/01/28 04:53:57;;;;;;;0.00;0.00;;;;;;;3.75;100.00;101052.41;4878551;29;20040;-76
2024/01/28 04:56:36;;;;;;;0.00;0.00;;;;;;;3.66;100.00;101036.38;4900937;29;20467;-75
2024/01/28 04:59:02;;;;;;;0.00;0.00;;;;;;;3.71;100.00;101051.16;4894293;29;20143;-75
2024/01/28 05:01:28;;;;;;;0.00;0.00;;;;;;;3.58;100.00;101025.75;4877364;29;20032;-74
2024/01/28 05:03:53;;;;;;;0.05;0.05;;;;;;;3.58;100.00;101031.16;4881858;29;20028;-76
2024/01/28 05:06:18;;;;;;;0.00;0.00;;;;;;;3.60;100.00;101017.44;4872274;29;20119;-76
2024/01/28 05:08:45;;;;;;;0.00;0.00;;;;;;;3.73;100.00;101038.25;4884057;29;20028;-75
2024/01/28 05:11:11;;;;;;;0.00;0.00;;;;;;;3.67;100.00;101031.81;4876059;29;20064;-77
2024/01/28 05:13:36;;;;;;;0.10;0.10;;;;;;;3.74;100.00;101026.38;4897260;29;20016;-77
2024/01/28 05:16:02;;;;;;;0.00;0.00;;;;;;;3.83;100.00;101044.09;4889718;29;20187;-76
2024/01/28 05:18:28;;;;;;;0.00;0.00;;;;;;;3.84;100.00;101051.16;4899287;29;20072;-77
2024/01/28 05:20:54;;;;;;;0.00;0.00;;;;;;;3.83;100.00;101049.53;4887253;29;20147;-75
2024/01/28 05:23:19;;;;;;;0.00;0.00;;;;;;;3.76;100.00;101029.72;4899225;29;20029;-75
2024/01/28 05:25:45;;;;;;;0.00;0.00;;;;;;;3.83;100.00;101038.69;4874929;29;20108;-74
2024/01/28 05:28:11;;;;;;;0.00;0.00;;;;;;;3.82;100.00;101031.59;4873310;29;20467;-76
2024/01/28 05:30:36;;;;;;;0.00;0.00;;;;;;;3.81;100.00;101024.53;4895767;29;20037;-76
2024/01/28 05:33:04;;;;;;;0.00;0.00;;;;;;;3.84;100.00;101029.50;4886777;29;20025;-75
2024/01/28 05:35:32;;;;;;;0.00;0.00;;;;;;;3.82;100.00;101020.78;4900036;29;20025;-75
2024/01/28 05:37:57;;;;;;;0.00;0.00;;;;;;;3.81;100.00;101016.41;4904028;29;20739;-76
2024/01/28 05:40:23;;;;;;;0.00;0.00;;;;;;;3.88;100.00;101014.53;4897825;29;20036;-76
2024/01/28 05:42:48;;;;;;;0.00;0.00;;;;;;;3.97;100.00;101016.03;4876094;29;20081;-74
2024/01/28 05:45:14;;;;;;;0.00;0.00;;;;;;;4.03;100.00;101017.06;4884420;29;20395;-75
2024/01/28 05:47:39;;;;;;;0.00;0.00;;;;;;;3.95;100.00;100999.16;4916100;29;20037;-75
2024/01/28 05:50:05;;;;;;;0.00;0.00;;;;;;;3.86;100.00;101000.41;4867005;29;20029;-75
2024/01/28 05:52:30;;;;;;;0.00;0.00;;;;;;;3.89;100.00;101005.38;4884026;29;20032;-74
2024/01/28 05:54:56;;;;;;;0.10;0.10;;;;;;;3.96;100.00;101010.81;4879376;29;20035;-76
2024/01/28 05:57:21;;;;;;;0.00;0.00;;;;;;;3.90;100.00;101009.78;4899974;29;20028;-75
2024/01/28 05:59:47;;;;;;;0.00;0.00;;;;;;;3.87;100.00;101006.63;4898840;29;20029;-75
2024/01/28 06:02:12;;;;;;;0.00;0.00;;;;;;;3.86;100.00;101005.00;4897710;29;20021;-75
2024/01/28 06:04:38;;;;;;;0.00;0.00;;;;;;;3.83;100.00;101000.81;4892496;29;20040;-75
2024/01/28 06:07:04;;;;;;;0.10;0.10;;;;;;;3.71;100.00;100991.63;4900800;29;20059;-76
2024/01/28 06:09:29;;;;;;;0.00;0.00;;;;;;;3.60;100.00;100974.97;4873442;29;20041;-75
2024/01/28 06:11:55;;;;;;;0.00;0.00;;;;;;;3.60;100.00;100972.28;4881578;29;20029;-76
2024/01/28 06:14:20;;;;;;;0.00;0.00;;;;;;;3.49;100.00;100956.69;4878995;29;20132;-75
2024/01/28 06:16:46;;;;;;;0.00;0.00;;;;;;;3.58;100.00;100982.47;4910543;29;20099;-74
2024/01/28 06:19:11;;;;;;;0.00;0.00;;;;;;;3.52;100.00;100972.50;4919823;29;20079;-74
2024/01/28 06:21:36;;;;;;;0.00;0.00;;;;;;;3.47;100.00;100969.56;4894506;29;20088;-76
2024/01/28 06:24:02;;;;;;;0.00;0.00;;;;;;;3.41;100.00;100963.09;4877995;29;20400;-75
2024/01/28 06:26:28;;;;;;;0.00;0.00;;;;;;;3.44;100.00;100970.78;4892478;29;20028;-75
2024/01/28 06:28:55;;;;;;;0.00;0.00;;;;;;;3.46;100.00;100971.44;4869001;29;20124;-75
2024/01/28 06:31:20;;;;;;;0.00;0.00;;;;;;;3.56;100.00;100989.94;4882240;29;20076;-75
2024/01/28 06:33:46;;;;;;;0.00;0.00;;;;;;;3.39;100.00;100964.34;4908062;29;20029;-75
2024/01/28 06:36:22;;;;;;;0.00;0.00;;;;;;;3.57;100.00;100991.63;4891356;29;20036;-75
2024/01/28 06:38:48;;;;;;;0.00;0.00;;;;;;;3.44;100.00;100975.38;4898891;29;20652;-76
2024/01/28 06:41:17;;;;;;;0.00;0.00;;;;;;;3.28;100.00;100954.97;4882965;29;20040;-75
2024/01/28 06:43:43;;;;;;;0.00;0.00;;;;;;;3.44;100.00;100972.69;4874400;29;20399;-74
2024/01/28 06:46:08;;;;;;;0.00;0.00;;;;;;;3.38;100.00;100965.41;4914330;29;20047;-75
2024/01/28 06:48:34;;;;;;;0.00;0.00;;;;;;;3.58;100.00;100985.19;4878274;29;20032;-74
2024/01/28 06:51:03;;;;;;;0.00;0.00;;;;;;;3.53;100.00;100973.31;4905085;29;20041;-74
2024/01/28 06:53:31;;;;;;;0.00;0.00;;;;;;;3.41;100.00;100970.38;4889392;29;20036;-74
2024/01/28 06:56:00;;;;;;;0.00;0.00;;;;;;;3.45;100.00;100977.88;4889246;29;20020;-75
2024/01/28 06:58:48;;;;;;;0.00;0.00;;;;;;;3.34;100.00;100964.13;4893886;29;20029;-74
2024/01/28 07:01:14;;;;;;;0.00;0.00;;;;;;;3.10;100.00;100926.66;4880696;29;20100;-72
2024/01/28 07:03:40;;;;;;;0.00;0.00;;;;;;;3.27;100.00;100954.16;4894687;29;20637;-75
2024/01/28 07:06:11;;;;;;;0.00;0.00;;;;;;;3.19;100.00;100951.63;4891254;29;20660;-74
2024/01/28 07:08:37;;;;;;;0.10;0.10;;;;;;;3.14;100.00;100964.94;4914536;29;20036;-75
2024/01/28 07:11:04;;;;;;;0.00;0.00;;;;;;;3.30;100.00;101002.41;4894526;29;20039;-74
2024/01/28 07:13:30;;;;;;;0.00;0.00;;;;;;;3.12;100.00;100958.88;4898464;29;20032;-75
2024/01/28 07:15:55;;;;;;;0.00;0.00;;;;;;;3.19;100.00;100973.25;4895597;29;20044;-76
2024/01/28 07:18:20;;;;;;;0.00;0.00;;;;;;;3.14;100.00;100964.94;4899337;29;20066;-75
2024/01/28 07:20:51;;;;;;;0.00;0.00;;;;;;;3.11;100.00;100965.31;4896453;29;20167;-75
2024/01/28 07:23:20;;;;;;;0.00;0.00;;;;;;;3.01;100.00;100949.50;4879519;29;20398;-76
2024/01/28 07:25:45;;;;;;;0.00;0.00;;;;;;;3.10;100.00;100947.44;4874050;29;20076;-74
2024/01/28 07:28:11;;;;;;;0.00;0.00;;;;;;;3.31;100.00;100976.19;4884551;29;20025;-74
2024/01/28 07:30:39;;;;;;;0.00;0.00;;;;;;;3.15;100.00;100944.94;4896400;29;20112;-73
2024/01/28 07:33:07;;;;;;;0.00;0.00;;;;;;;3.32;100.00;100975.16;4896542;29;20491;-75
2024/01/28 07:35:35;;;;;;;0.00;0.00;;;;;;;3.30;100.00;100969.94;4880555;29;20047;-74
2024/01/28 07:38:01;;;;;;;0.00;0.00;;;;;;;3.37;100.00;100979.94;4881885;29;20103;-74
2024/01/28 07:40:26;;;;;;;0.00;0.00;;;;;;;3.44;100.00;100970.78;4898627;29;20087;-74
2024/01/28 07:42:55;;;;;;;0.00;0.00;;;;;;;3.34;100.00;100950.63;4879405;29;20017;-74
2024/01/28 07:45:22;;;;;;;0.00;0.00;;;;;;;3.48;100.00;100976.63;4913731;29;20395;-75
2024/01/28 07:47:48;;;;;;;0.00;0.00;;;;;;;3.36;100.00;100946.69;4897767;29;20032;-75
2024/01/28 07:50:13;;;;;;;0.00;0.00;;;;;;;3.51;100.00;100968.13;4873737;29;20044;-72
2024/01/28 07:52:40;;;;;;;0.00;0.00;;;;;;;3.55;100.00;100972.06;4904887;29;20063;-74
2024/01/28 07:55:06;;;;;;;0.00;0.00;;;;;;;3.63;100.00;100965.63;4882748;29;20675;-72
2024/01/28 07:57:31;;;;;;;0.00;0.00;;;;;;;3.53;100.00;100933.56;4901855;29;20084;-75
2024/01/28 07:59:57;;;;;;;0.00;0.00;;;;;;;3.67;100.00;100951.47;4892923;29;20028;-74
2024/01/28 08:02:22;;;;;;;0.00;0.00;;;;;;;3.74;100.00;100962.31;4893817;29;20044;-75
2024/01/28 08:04:48;;;;;;;0.10;0.10;;;;;;;3.60;100.00;100931.72;4896989;29;20033;-74
2024/01/28 08:07:14;;;;;;;0.08;0.08;;;;;;;3.70;100.00;100944.00;4889509;29;21236;-74
2024/01/28 08:09:40;;;;;;;0.00;0.00;;;;;;;3.67;100.00;100927.13;4887469;29;20032;-74
2024/01/28 08:12:06;;;;;;;0.00;0.00;;;;;;;3.88;100.00;100941.47;4898624;29;20106;-74
2024/01/28 08:14:32;;;;;;;0.00;0.00;;;;;;;3.91;100.00;100943.78;4890855;29;20032;-75
2024/01/28 08:16:57;;;;;;;0.00;0.00;;;;;;;3.89;100.00;100929.63;4910034;29;20562;-74
2024/01/28 08:19:23;;;;;;;0.00;0.00;;;;;;;4.02;100.00;100935.03;4892720;29;20395;-75
2024/01/28 08:21:48;;;;;;;0.00;0.00;;;;;;;4.26;100.00;100938.09;4883640;29;20032;-74
2024/01/28 08:24:13;;;;;;;0.00;0.00;;;;;;;4.41;100.00;100945.16;4892085;29;20043;-74
2024/01/28 08:26:40;;;;;;;0.00;0.00;;;;;;;4.47;100.00;100926.19;4895061;29;20024;-74
2024/01/28 08:29:05;;;;;;;0.00;0.00;;;;;;;4.65;100.00;100933.63;4888372;29;20085;-76
2024/01/28 08:31:30;;;;;;;0.00;0.00;;;;;;;4.77;100.00;100930.25;4891990;29;20020;-75
2024/01/28 08:33:56;;;;;;;0.00;0.00;;;;;;;4.87;100.00;100917.88;4883604;29;20029;-76
2024/01/28 08:36:21;;;;;;;0.00;0.00;;;;;;;5.07;100.00;100909.66;4866096;29;20037;-75
2024/01/28 08:38:47;;;;;;;0.00;0.00;;;;;;;5.23;100.00;100902.06;4896662;29;20371;-77
2024/01/28 08:41:12;;;;;;;0.10;0.10;;;;;;;5.50;100.00;100918.13;4890922;29;20033;-76
2024/01/28 08:43:38;;;;;;;0.00;0.00;;;;;;;5.60;100.00;100919.28;4894043;29;20031;-74
2024/01/28 08:46:03;;;;;;;0.00;0.00;;;;;;;5.85;100.00;100928.50;4895112;29;20365;-77
2024/01/28 08:48:29;;;;;;;0.10;0.10;;;;;;;6.01;100.00;100919.81;4888950;29;20017;-74
2024/01/28 08:50:55;;;;;;;0.00;0.00;;;;;;;6.21;100.00;100925.06;4908081;29;20028;-74
2024/01/28 08:53:26;;;;;;;0.00;0.00;;;;;;;6.38;100.00;100913.59;4874548;29;20036;-75
2024/01/28 08:56:09;;;;;;;0.00;0.00;;;;;;;6.55;100.00;100935.56;4853335;29;20073;-78
2024/01/28 08:59:18;;;;;;;0.00;0.00;;;;;;;6.21;100.00;100859.06;4872188;29;20038;-75
2024/01/28 09:01:54;;;;;;;;;;;;;;;;;;;;;
2024/01/28 09:04:27;;;;;;;0.00;0.00;;;;;;;6.44;100.00;100885.53;4895038;29;20120;-73
2024/01/28 09:06:53;;;;;;;0.00;0.00;;;;;;;6.67;100.00;100917.44;4894488;29;20826;-74
2024/01/28 09:09:18;;;;;;;0.00;0.00;;;;;;;6.76;100.00;100926.94;4905256;29;20044;-74
2024/01/28 09:11:44;;;;;;;0.00;0.00;;;;;;;6.85;100.00;100911.16;4888352;29;20052;-74
2024/01/28 09:14:10;;;;;;;0.00;0.00;;;;;;;7.04;100.00;100911.94;4891064;29;20033;-74
2024/01/28 09:16:35;;;;;;;0.00;0.00;;;;;;;7.23;100.00;100898.25;4894998;29;20032;-72
2024/01/28 09:19:03;;;;;;;0.00;0.00;;;;;;;7.38;100.00;100906.84;4871607;29;20140;-73
2024/01/28 09:21:32;;;;;;;0.00;0.00;;;;;;;7.67;100.00;100921.44;4901919;29;20025;-74
2024/01/28 09:24:00;;;;;;;0.00;0.00;;;;;;;7.86;100.00;100910.47;4884301;29;20033;-74
2024/01/28 09:26:25;;;;;;;0.05;0.05;;;;;;;8.20;100.00;100914.22;4886107;29;20043;-74
2024/01/28 09:28:51;;;;;;;0.00;0.00;;;;;;;8.47;100.00;100919.22;4874442;29;20041;-72
2024/01/28 09:31:16;;;;;;;0.00;0.00;;;;;;;8.86;100.00;100905.84;4884485;29;20036;-76
2024/01/28 09:33:43;;;;;;;0.00;0.00;;;;;;;9.69;100.00;100894.47;4862995;29;20041;-74
2024/01/28 09:36:08;;;;;;;0.00;0.00;;;;;;;10.18;93.86;100918.44;4879228;29;20040;-74
2024/01/28 09:38:34;;;;;;;0.00;0.00;;;;;;;10.20;91.77;100909.97;4897372;29;20025;-74
2024/01/28 09:41:32;;;;;;;0.00;0.00;;;;;;;10.92;91.92;100887.13;4889271;29;20109;-75
2024/01/28 09:43:58;;;;;;;0.10;0.10;;;;;;;11.35;87.78;100884.53;4898966;29;20107;-77
2024/01/28 09:46:52;;;;;;;0.00;0.00;;;;;;;11.42;86.46;100895.25;4876069;29;20020;-75
2024/01/28 09:49:20;;;;;;;0.08;0.08;;;;;;;11.87;85.02;100907.69;4894290;29;20045;-74
2024/01/28 09:51:46;;;;;;;0.00;0.00;;;;;;;11.57;80.88;100911.03;4904320;29;20641;-74
2024/01/28 09:54:12;;;;;;;0.00;0.00;;;;;;;10.86;80.60;100893.59;4892633;29;20431;-77
2024/01/28 09:56:41;;;;;;;0.00;0.00;;;;;;;10.16;83.09;100895.97;4909318;29;20032;-75
2024/01/28 09:59:10;;;;;;;0.00;0.00;;;;;;;9.53;84.38;100862.53;4896226;29;20041;-73
2024/01/28 10:01:37;;;;;;;0.00;0.00;;;;;;;9.41;85.50;100887.19;4896354;29;20119;-74
2024/01/28 10:04:20;;;;;;;0.00;0.00;;;;;;;9.07;85.45;100857.94;4881519;29;20041;-72
2024/01/28 10:06:47;;;;;;;0.00;0.00;;;;;;;8.95;85.60;100869.97;4903358;29;20033;-74
2024/01/28 10:09:13;;;;;;;0.00;0.00;;;;;;;8.93;86.49;100872.13;4889299;29;20547;-73
2024/01/28 10:11:39;;;;;;;0.00;0.00;;;;;;;9.01;86.34;100878.03;4907577;29;20033;-75
2024/01/28 10:14:04;;;;;;;0.00;0.00;;;;;;;9.16;86.39;100863.81;4889132;29;20025;-75
2024/01/28 10:16:35;;;;;;;0.00;0.00;;;;;;;9.44;85.54;100894.88;4882662;29;20043;-75
2024/01/28 10:19:05;;;;;;;0.00;0.00;;;;;;;9.99;83.96;100868.69;4890108;29;20088;-75
2024/01/28 10:21:31;;;;;;;0.00;0.00;;;;;;;11.28;80.61;100882.00;4903551;29;20646;-71
2024/01/28 10:23:59;;;;;;;0.00;0.00;;;;;;;12.33;75.87;100883.31;4893221;29;20037;-72
2024/01/28 10:26:25;;;;;;;0.00;0.00;;;;;;;12.84;71.36;100881.91;4891621;29;20029;-73
2024/01/28 10:28:51;;;;;;;0.00;0.00;;;;;;;13.58;67.22;100879.81;4871195;29;20044;-73
2024/01/28 10:31:22;;;;;;;0.00;0.00;;;;;;;14.54;64.98;100870.81;4901848;29;20047;-71
2024/01/28 10:33:49;;;;;;;0.00;0.00;;;;;;;16.28;59.27;100899.03;4889936;29;20017;-73
2024/01/28 10:36:21;;;;;;;0.00;0.00;;;;;;;16.74;55.02;100889.38;4892975;29;20028;-73
2024/01/28 10:38:52;;;;;;;0.00;0.00;;;;;;;16.91;55.00;100875.09;4886197;29;20032;-76
2024/01/28 10:41:18;;;;;;;0.00;0.00;;;;;;;18.28;50.79;100881.41;4910263;29;20379;-74
2024/01/28 10:43:57;;;;;;;0.00;0.00;;;;;;;19.08;48.89;100902.47;4901408;29;20494;-73
2024/01/28 10:46:32;;;;;;;0.00;0.00;;;;;;;19.84;47.40;100904.53;4891585;29;20021;-73
2024/01/28 10:49:03;;;;;;;0.00;0.00;;;;;;;20.42;46.36;100913.00;4908631;29;20045;-73
2024/01/28 10:51:31;;;;;;;0.03;0.03;;;;;;;19.44;45.12;100905.22;4893597;29;20048;-74
2024/01/28 10:53:57;;;;;;;0.00;0.00;;;;;;;18.67;47.58;100882.81;4895828;29;20044;-76
2024/01/28 10:56:23;;;;;;;0.00;0.00;;;;;;;19.39;46.53;100898.97;4914239;29;20028;-73
2024/01/28 10:58:50;;;;;;;0.00;0.00;;;;;;;19.78;44.66;100891.91;4891657;29;20044;-75
2024/01/28 11:01:17;;;;;;;0.00;0.00;;;;;;;19.56;44.46;100896.34;4890389;29;20028;-75
2024/01/28 11:03:43;;;;;;;0.00;0.00;;;;;;;19.70;44.94;100893.50;4888127;29;20032;-76
2024/01/28 11:06:09;;;;;;;0.00;0.00;;;;;;;18.90;46.25;100896.75;4894222;29;20035;-81
2024/01/28 11:08:38;;;;;;;0.00;0.00;;;;;;;18.04;47.55;100894.59;4894906;29;20037;-75
2024/01/28 11:11:17;;;;;;;0.00;0.00;;;;;;;17.10;49.44;100886.16;4899266;29;20028;-77
2024/01/28 11:13:48;;;;;;;0.00;0.00;;;;;;;15.33;52.99;100887.44;4891668;29;20031;-72
2024/01/28 11:16:15;;;;;;;0.00;0.00;;;;;;;14.47;56.92;100885.69;4873181;29;20040;-75
2024/01/28 11:19:11;;;;;;;0.00;0.00;;;;;;;13.95;59.01;100874.00;4884865;29;20143;-75
2024/01/28 11:21:40;;;;;;;0.00;0.00;;;;;;;13.14;61.85;100863.81;4896198;29;20119;-75
2024/01/28 11:24:07;;;;;;;0.00;0.00;;;;;;;12.75;64.64;100868.69;4898638;29;20051;-75
2024/01/28 11:26:38;;;;;;;0.00;0.00;;;;;;;13.39;64.75;100872.13;4902048;29;20071;-75